sensor_id;sensor_type;location;lat;lon;timestamp;temperature;humidity
46816;DHT22;32787;53.316;8.670;2022-07-17T00:02:16;10.90;86.90
46816;DHT22;32787;53.316;8.670;2022-07-17T00:04:41;10.90;86.90
46816;DHT22;32787;53.316;8.670;2022-07-17T00:07:07;11.00;86.70
46816;DHT22;32787;53.316;8.670;2022-07-17T00:09:33;10.90;86.70
46816;DHT22;32787;53.316;8.670;2022-07-17T00:11:58;11.10;86.60
46816;DHT22;32787;53.316;8.670;2022-07-17T00:14:24;11.00;86.40
46816;DHT22;32787;53.316;8.670;2022-07-17T00:16:49;10.90;86.60
46816;DHT22;32787;53.316;8.670;2022-07-17T00:19:17;10.80;86.90
46816;DHT22;32787;53.316;8.670;2022-07-17T00:21:42;10.80;87.20
46816;DHT22;32787;53.316;8.670;2022-07-17T00:24:08;10.70;87.20
46816;DHT22;32787;53.316;8.670;2022-07-17T00:26:34;10.60;87.40
46816;DHT22;32787;53.316;8.670;2022-07-17T00:29:01;10.50;87.60
46816;DHT22;32787;53.316;8.670;2022-07-17T00:31:27;10.50;87.70
46816;DHT22;32787;53.316;8.670;2022-07-17T00:33:52;10.50;87.60
46816;DHT22;32787;53.316;8.670;2022-07-17T00:36:18;10.30;87.70
46816;DHT22;32787;53.316;8.670;2022-07-17T00:38:43;10.30;88.00
46816;DHT22;32787;53.316;8.670;2022-07-17T00:41:09;10.30;88.10
46816;DHT22;32787;53.316;8.670;2022-07-17T00:43:35;10.30;88.30
46816;DHT22;32787;53.316;8.670;2022-07-17T00:46:02;10.40;88.10
46816;DHT22;32787;53.316;8.670;2022-07-17T00:48:28;10.50;87.70
46816;DHT22;32787;53.316;8.670;2022-07-17T00:50:54;10.50;87.50
46816;DHT22;32787;53.316;8.670;2022-07-17T00:53:21;10.30;87.80
46816;DHT22;32787;53.316;8.670;2022-07-17T00:55:47;10.40;87.60
46816;DHT22;32787;53.316;8.670;2022-07-17T00:58:23;10.30;87.70
46816;DHT22;32787;53.316;8.670;2022-07-17T01:00:52;10.10;87.90
46816;DHT22;32787;53.316;8.670;2022-07-17T01:03:20;10.10;88.10
46816;DHT22;32787;53.316;8.670;2022-07-17T01:05:46;10.00;88.40
46816;DHT22;32787;53.316;8.670;2022-07-17T01:08:12;10.10;88.40
46816;DHT22;32787;53.316;8.670;2022-07-17T01:10:38;10.10;88.30
46816;DHT22;32787;53.316;8.670;2022-07-17T01:13:04;10.10;88.40
46816;DHT22;32787;53.316;8.670;2022-07-17T01:15:31;10.20;88.20
46816;DHT22;32787;53.316;8.670;2022-07-17T01:17:57;10.00;88.30
46816;DHT22;32787;53.316;8.670;2022-07-17T01:20:23;10.30;88.10
46816;DHT22;32787;53.316;8.670;2022-07-17T01:22:50;10.20;88.10
46816;DHT22;32787;53.316;8.670;2022-07-17T01:25:21;10.40;88.20
46816;DHT22;32787;53.316;8.670;2022-07-17T01:27:47;10.50;87.80
46816;DHT22;32787;53.316;8.670;2022-07-17T01:30:13;10.60;87.00
46816;DHT22;32787;53.316;8.670;2022-07-17T01:32:40;10.30;87.40
46816;DHT22;32787;53.316;8.670;2022-07-17T01:35:07;10.40;87.00
46816;DHT22;32787;53.316;8.670;2022-07-17T01:37:34;10.50;86.60
46816;DHT22;32787;53.316;8.670;2022-07-17T01:39:59;10.30;87.00
46816;DHT22;32787;53.316;8.670;2022-07-17T01:42:26;10.40;86.80
46816;DHT22;32787;53.316;8.670;2022-07-17T01:44:53;10.40;86.80
46816;DHT22;32787;53.316;8.670;2022-07-17T01:47:19;10.40;86.90
46816;DHT22;32787;53.316;8.670;2022-07-17T01:49:50;10.30;87.00
46816;DHT22;32787;53.316;8.670;2022-07-17T01:52:16;10.30;87.10
46816;DHT22;32787;53.316;8.670;2022-07-17T01:54:42;10.30;87.00
46816;DHT22;32787;53.316;8.670;2022-07-17T01:57:09;10.20;87.00
46816;DHT22;32787;53.316;8.670;2022-07-17T01:59:35;10.20;87.00
46816;DHT22;32787;53.316;8.670;2022-07-17T02:02:01;10.10;87.00
46816;DHT22;32787;53.316;8.670;2022-07-17T02:04:27;10.20;87.10
46816;DHT22;32787;53.316;8.670;2022-07-17T02:06:54;10.20;87.00
46816;DHT22;32787;53.316;8.670;2022-07-17T02:09:20;10.20;87.00
46816;DHT22;32787;53.316;8.670;2022-07-17T02:11:46;10.00;87.50
46816;DHT22;32787;53.316;8.670;2022-07-17T02:14:12;9.90;87.70
46816;DHT22;32787;53.316;8.670;2022-07-17T02:16:37;9.90;87.90
46816;DHT22;32787;53.316;8.670;2022-07-17T02:19:03;9.80;87.80
46816;DHT22;32787;53.316;8.670;2022-07-17T02:21:29;9.90;87.40
46816;DHT22;32787;53.316;8.670;2022-07-17T02:23:55;10.10;87.00
46816;DHT22;32787;53.316;8.670;2022-07-17T02:26:21;9.90;86.80
46816;DHT22;32787;53.316;8.670;2022-07-17T02:28:46;9.70;87.20
46816;DHT22;32787;53.316;8.670;2022-07-17T02:31:12;9.50;87.40
46816;DHT22;32787;53.316;8.670;2022-07-17T02:33:37;9.60;87.70
46816;DHT22;32787;53.316;8.670;2022-07-17T02:36:03;9.60;87.40
46816;DHT22;32787;53.316;8.670;2022-07-17T02:38:29;9.50;87.60
46816;DHT22;32787;53.316;8.670;2022-07-17T02:40:54;9.30;87.90
46816;DHT22;32787;53.316;8.670;2022-07-17T02:43:20;9.20;88.30
46816;DHT22;32787;53.316;8.670;2022-07-17T02:45:46;9.10;88.50
46816;DHT22;32787;53.316;8.670;2022-07-17T02:48:11;9.00;88.90
46816;DHT22;32787;53.316;8.670;2022-07-17T02:50:37;9.00;89.20
46816;DHT22;32787;53.316;8.670;2022-07-17T02:53:02;9.10;89.30
46816;DHT22;32787;53.316;8.670;2022-07-17T02:55:28;9.10;89.30
46816;DHT22;32787;53.316;8.670;2022-07-17T02:57:54;9.20;89.50
46816;DHT22;32787;53.316;8.670;2022-07-17T03:00:20;9.40;89.20
46816;DHT22;32787;53.316;8.670;2022-07-17T03:02:46;9.50;89.20
46816;DHT22;32787;53.316;8.670;2022-07-17T03:05:13;9.60;89.00
46816;DHT22;32787;53.316;8.670;2022-07-17T03:07:39;9.80;88.60
46816;DHT22;32787;53.316;8.670;2022-07-17T03:10:06;9.80;88.40
46816;DHT22;32787;53.316;8.670;2022-07-17T03:12:32;9.80;88.40
46816;DHT22;32787;53.316;8.670;2022-07-17T03:14:57;9.80;88.40
46816;DHT22;32787;53.316;8.670;2022-07-17T03:17:23;9.70;88.00
46816;DHT22;32787;53.316;8.670;2022-07-17T03:19:48;9.60;88.40
46816;DHT22;32787;53.316;8.670;2022-07-17T03:22:14;9.60;88.60
46816;DHT22;32787;53.316;8.670;2022-07-17T03:24:40;9.60;88.60
46816;DHT22;32787;53.316;8.670;2022-07-17T03:27:05;9.60;89.90
46816;DHT22;32787;53.316;8.670;2022-07-17T03:29:31;9.70;89.70
46816;DHT22;32787;53.316;8.670;2022-07-17T03:31:56;9.70;89.20
46816;DHT22;32787;53.316;8.670;2022-07-17T03:34:22;9.70;88.90
46816;DHT22;32787;53.316;8.670;2022-07-17T03:36:48;9.50;88.90
46816;DHT22;32787;53.316;8.670;2022-07-17T03:39:14;9.40;89.20
46816;DHT22;32787;53.316;8.670;2022-07-17T03:41:40;9.40;89.60
46816;DHT22;32787;53.316;8.670;2022-07-17T03:44:05;9.30;89.80
46816;DHT22;32787;53.316;8.670;2022-07-17T03:46:31;9.30;90.20
46816;DHT22;32787;53.316;8.670;2022-07-17T03:48:57;9.40;90.00
46816;DHT22;32787;53.316;8.670;2022-07-17T03:51:22;9.50;90.10
46816;DHT22;32787;53.316;8.670;2022-07-17T03:53:48;9.70;89.50
46816;DHT22;32787;53.316;8.670;2022-07-17T03:56:13;9.80;89.40
46816;DHT22;32787;53.316;8.670;2022-07-17T03:58:39;9.70;89.50
46816;DHT22;32787;53.316;8.670;2022-07-17T04:01:05;9.90;89.20
46816;DHT22;32787;53.316;8.670;2022-07-17T04:03:30;10.00;88.80
46816;DHT22;32787;53.316;8.670;2022-07-17T04:05:56;9.90;88.60
46816;DHT22;32787;53.316;8.670;2022-07-17T04:08:22;10.00;88.50
46816;DHT22;32787;53.316;8.670;2022-07-17T04:10:48;9.70;88.80
46816;DHT22;32787;53.316;8.670;2022-07-17T04:13:13;9.70;88.70
46816;DHT22;32787;53.316;8.670;2022-07-17T04:15:39;9.80;88.90
46816;DHT22;32787;53.316;8.670;2022-07-17T04:18:30;9.80;88.90
46816;DHT22;32787;53.316;8.670;2022-07-17T04:21:07;9.90;88.70
46816;DHT22;32787;53.316;8.670;2022-07-17T04:23:34;9.90;88.70
46816;DHT22;32787;53.316;8.670;2022-07-17T04:26:00;9.90;88.80
46816;DHT22;32787;53.316;8.670;2022-07-17T04:28:26;9.90;88.80
46816;DHT22;32787;53.316;8.670;2022-07-17T04:30:52;9.90;88.90
46816;DHT22;32787;53.316;8.670;2022-07-17T04:33:17;9.90;89.00
46816;DHT22;32787;53.316;8.670;2022-07-17T04:35:43;9.90;89.20
46816;DHT22;32787;53.316;8.670;2022-07-17T04:38:09;9.90;89.50
46816;DHT22;32787;53.316;8.670;2022-07-17T04:40:37;9.90;89.50
46816;DHT22;32787;53.316;8.670;2022-07-17T04:43:03;10.10;89.70
46816;DHT22;32787;53.316;8.670;2022-07-17T04:45:29;10.10;89.90
46816;DHT22;32787;53.316;8.670;2022-07-17T04:47:55;10.30;89.80
46816;DHT22;32787;53.316;8.670;2022-07-17T04:50:21;10.30;90.00
46816;DHT22;32787;53.316;8.670;2022-07-17T04:52:47;10.30;90.00
46816;DHT22;32787;53.316;8.670;2022-07-17T04:55:13;10.30;90.10
46816;DHT22;32787;53.316;8.670;2022-07-17T04:57:39;10.40;90.30
46816;DHT22;32787;53.316;8.670;2022-07-17T05:00:06;10.40;90.50
46816;DHT22;32787;53.316;8.670;2022-07-17T05:02:33;10.60;90.10
46816;DHT22;32787;53.316;8.670;2022-07-17T05:04:58;10.80;89.80
46816;DHT22;32787;53.316;8.670;2022-07-17T05:07:24;10.80;89.70
46816;DHT22;32787;53.316;8.670;2022-07-17T05:09:50;10.80;89.90
46816;DHT22;32787;53.316;8.670;2022-07-17T05:12:15;10.90;90.20
46816;DHT22;32787;53.316;8.670;2022-07-17T05:14:41;11.00;90.00
46816;DHT22;32787;53.316;8.670;2022-07-17T05:17:07;11.10;90.20
46816;DHT22;32787;53.316;8.670;2022-07-17T05:19:32;11.20;89.90
46816;DHT22;32787;53.316;8.670;2022-07-17T05:21:59;11.20;90.00
46816;DHT22;32787;53.316;8.670;2022-07-17T05:24:24;11.30;90.10
46816;DHT22;32787;53.316;8.670;2022-07-17T05:26:50;11.40;90.10
46816;DHT22;32787;53.316;8.670;2022-07-17T05:29:16;11.50;89.90
46816;DHT22;32787;53.316;8.670;2022-07-17T05:31:41;11.60;89.60
46816;DHT22;32787;53.316;8.670;2022-07-17T05:34:07;11.70;89.60
46816;DHT22;32787;53.316;8.670;2022-07-17T05:36:33;11.80;89.70
46816;DHT22;32787;53.316;8.670;2022-07-17T05:38:59;11.90;89.80
46816;DHT22;32787;53.316;8.670;2022-07-17T05:41:24;11.80;89.70
46816;DHT22;32787;53.316;8.670;2022-07-17T05:43:50;11.80;89.60
46816;DHT22;32787;53.316;8.670;2022-07-17T05:46:16;11.90;89.80
46816;DHT22;32787;53.316;8.670;2022-07-17T05:48:42;12.00;89.70
46816;DHT22;32787;53.316;8.670;2022-07-17T05:51:07;12.00;88.80
46816;DHT22;32787;53.316;8.670;2022-07-17T05:53:33;12.10;89.00
46816;DHT22;32787;53.316;8.670;2022-07-17T05:55:59;12.10;89.10
46816;DHT22;32787;53.316;8.670;2022-07-17T05:58:25;12.30;89.00
46816;DHT22;32787;53.316;8.670;2022-07-17T06:00:50;12.50;87.80
46816;DHT22;32787;53.316;8.670;2022-07-17T06:03:16;12.80;87.00
46816;DHT22;32787;53.316;8.670;2022-07-17T06:05:42;13.00;86.20
46816;DHT22;32787;53.316;8.670;2022-07-17T06:08:08;13.10;86.50
46816;DHT22;32787;53.316;8.670;2022-07-17T06:10:34;13.10;86.20
46816;DHT22;32787;53.316;8.670;2022-07-17T06:13:00;13.20;85.80
46816;DHT22;32787;53.316;8.670;2022-07-17T06:15:26;13.30;85.50
46816;DHT22;32787;53.316;8.670;2022-07-17T06:17:52;13.40;85.80
46816;DHT22;32787;53.316;8.670;2022-07-17T06:20:18;13.40;85.70
46816;DHT22;32787;53.316;8.670;2022-07-17T06:22:45;13.40;85.50
46816;DHT22;32787;53.316;8.670;2022-07-17T06:25:11;13.40;84.90
46816;DHT22;32787;53.316;8.670;2022-07-17T06:27:41;13.60;85.20
46816;DHT22;32787;53.316;8.670;2022-07-17T06:30:11;13.70;85.00
46816;DHT22;32787;53.316;8.670;2022-07-17T06:32:37;13.80;84.50
46816;DHT22;32787;53.316;8.670;2022-07-17T06:35:03;13.90;84.90
46816;DHT22;32787;53.316;8.670;2022-07-17T06:37:29;14.00;84.70
46816;DHT22;32787;53.316;8.670;2022-07-17T06:39:55;14.10;84.20
46816;DHT22;32787;53.316;8.670;2022-07-17T06:42:22;14.10;84.50
46816;DHT22;32787;53.316;8.670;2022-07-17T06:44:47;14.10;84.10
46816;DHT22;32787;53.316;8.670;2022-07-17T06:47:13;14.10;84.10
46816;DHT22;32787;53.316;8.670;2022-07-17T06:49:39;14.10;83.90
46816;DHT22;32787;53.316;8.670;2022-07-17T06:52:05;14.20;83.80
46816;DHT22;32787;53.316;8.670;2022-07-17T06:54:30;14.30;84.40
46816;DHT22;32787;53.316;8.670;2022-07-17T06:56:56;14.40;84.00
46816;DHT22;32787;53.316;8.670;2022-07-17T06:59:22;14.40;83.70
46816;DHT22;32787;53.316;8.670;2022-07-17T07:01:48;14.60;83.90
46816;DHT22;32787;53.316;8.670;2022-07-17T07:04:14;14.60;83.00
46816;DHT22;32787;53.316;8.670;2022-07-17T07:06:40;14.70;82.90
46816;DHT22;32787;53.316;8.670;2022-07-17T07:09:05;14.90;82.10
46816;DHT22;32787;53.316;8.670;2022-07-17T07:11:31;14.90;80.90
46816;DHT22;32787;53.316;8.670;2022-07-17T07:13:57;14.90;80.70
46816;DHT22;32787;53.316;8.670;2022-07-17T07:16:23;14.90;80.80
46816;DHT22;32787;53.316;8.670;2022-07-17T07:18:48;15.20;80.80
46816;DHT22;32787;53.316;8.670;2022-07-17T07:21:14;15.30;80.30
46816;DHT22;32787;53.316;8.670;2022-07-17T07:23:39;15.50;79.30
46816;DHT22;32787;53.316;8.670;2022-07-17T07:26:06;15.50;77.80
46816;DHT22;32787;53.316;8.670;2022-07-17T07:28:31;15.70;77.00
46816;DHT22;32787;53.316;8.670;2022-07-17T07:30:58;15.70;78.10
46816;DHT22;32787;53.316;8.670;2022-07-17T07:33:24;15.60;77.50
46816;DHT22;32787;53.316;8.670;2022-07-17T07:35:49;15.90;77.60
46816;DHT22;32787;53.316;8.670;2022-07-17T07:38:15;16.00;76.70
46816;DHT22;32787;53.316;8.670;2022-07-17T07:40:41;16.00;76.50
46816;DHT22;32787;53.316;8.670;2022-07-17T07:43:06;16.20;76.90
46816;DHT22;32787;53.316;8.670;2022-07-17T07:45:32;15.90;76.80
46816;DHT22;32787;53.316;8.670;2022-07-17T07:47:58;15.80;77.00
46816;DHT22;32787;53.316;8.670;2022-07-17T07:50:24;15.90;77.60
46816;DHT22;32787;53.316;8.670;2022-07-17T07:52:51;16.00;76.00
46816;DHT22;32787;53.316;8.670;2022-07-17T07:55:17;16.30;78.10
46816;DHT22;32787;53.316;8.670;2022-07-17T07:57:43;16.20;74.50
46816;DHT22;32787;53.316;8.670;2022-07-17T08:00:10;16.30;75.30
46816;DHT22;32787;53.316;8.670;2022-07-17T08:02:36;16.40;75.20
46816;DHT22;32787;53.316;8.670;2022-07-17T08:05:03;16.40;76.00
46816;DHT22;32787;53.316;8.670;2022-07-17T08:07:29;16.50;74.90
46816;DHT22;32787;53.316;8.670;2022-07-17T08:09:55;16.30;74.10
46816;DHT22;32787;53.316;8.670;2022-07-17T08:12:22;16.20;73.90
46816;DHT22;32787;53.316;8.670;2022-07-17T08:14:48;16.20;74.80
46816;DHT22;32787;53.316;8.670;2022-07-17T08:17:13;16.20;75.00
46816;DHT22;32787;53.316;8.670;2022-07-17T08:19:39;16.20;74.00
46816;DHT22;32787;53.316;8.670;2022-07-17T08:22:05;16.30;73.50
46816;DHT22;32787;53.316;8.670;2022-07-17T08:24:30;16.50;74.40
46816;DHT22;32787;53.316;8.670;2022-07-17T08:26:56;16.50;74.00
46816;DHT22;32787;53.316;8.670;2022-07-17T08:29:22;16.50;73.50
46816;DHT22;32787;53.316;8.670;2022-07-17T08:31:47;16.60;74.20
46816;DHT22;32787;53.316;8.670;2022-07-17T08:34:13;16.60;74.20
46816;DHT22;32787;53.316;8.670;2022-07-17T08:36:40;16.50;73.30
46816;DHT22;32787;53.316;8.670;2022-07-17T08:39:06;16.30;74.10
46816;DHT22;32787;53.316;8.670;2022-07-17T08:41:32;16.30;74.90
46816;DHT22;32787;53.316;8.670;2022-07-17T08:44:03;16.40;75.80
46816;DHT22;32787;53.316;8.670;2022-07-17T08:46:29;16.40;74.20
46816;DHT22;32787;53.316;8.670;2022-07-17T08:48:59;16.40;75.00
46816;DHT22;32787;53.316;8.670;2022-07-17T08:51:25;16.40;73.30
46816;DHT22;32787;53.316;8.670;2022-07-17T08:53:52;16.60;73.60
46816;DHT22;32787;53.316;8.670;2022-07-17T08:56:18;16.50;73.90
46816;DHT22;32787;53.316;8.670;2022-07-17T08:58:44;16.80;72.90
46816;DHT22;32787;53.316;8.670;2022-07-17T09:01:10;16.90;72.90
46816;DHT22;32787;53.316;8.670;2022-07-17T09:03:35;17.00;73.10
46816;DHT22;32787;53.316;8.670;2022-07-17T09:06:02;17.30;72.50
46816;DHT22;32787;53.316;8.670;2022-07-17T09:08:28;17.30;70.90
46816;DHT22;32787;53.316;8.670;2022-07-17T09:10:58;17.20;71.80
46816;DHT22;32787;53.316;8.670;2022-07-17T09:13:29;17.00;71.00
46816;DHT22;32787;53.316;8.670;2022-07-17T09:18:31;17.70;69.90
46816;DHT22;32787;53.316;8.670;2022-07-17T09:20:58;17.40;69.90
46816;DHT22;32787;53.316;8.670;2022-07-17T09:23:26;17.40;70.40
46816;DHT22;32787;53.316;8.670;2022-07-17T09:25:54;17.60;71.10
46816;DHT22;32787;53.316;8.670;2022-07-17T09:28:21;17.30;69.70
46816;DHT22;32787;53.316;8.670;2022-07-17T09:30:50;17.10;70.40
46816;DHT22;32787;53.316;8.670;2022-07-17T09:33:19;17.00;69.90
46816;DHT22;32787;53.316;8.670;2022-07-17T09:36:06;17.30;69.70
46816;DHT22;32787;53.316;8.670;2022-07-17T09:38:40;17.70;66.60
46816;DHT22;32787;53.316;8.670;2022-07-17T09:43:56;17.70;69.20
46816;DHT22;32787;53.316;8.670;2022-07-17T09:46:28;18.00;66.30
46816;DHT22;32787;53.316;8.670;2022-07-17T09:48:55;18.10;66.40
46816;DHT22;32787;53.316;8.670;2022-07-17T09:51:23;18.10;68.50
46816;DHT22;32787;53.316;8.670;2022-07-17T09:53:53;18.30;67.10
46816;DHT22;32787;53.316;8.670;2022-07-17T09:56:20;18.30;65.70
46816;DHT22;32787;53.316;8.670;2022-07-17T09:58:51;18.30;68.40
46816;DHT22;32787;53.316;8.670;2022-07-17T10:01:18;18.10;66.20
46816;DHT22;32787;53.316;8.670;2022-07-17T10:03:44;18.00;67.40
46816;DHT22;32787;53.316;8.670;2022-07-17T10:06:11;18.40;65.20
46816;DHT22;32787;53.316;8.670;2022-07-17T10:08:37;18.50;65.00
46816;DHT22;32787;53.316;8.670;2022-07-17T10:11:05;18.40;65.80
46816;DHT22;32787;53.316;8.670;2022-07-17T10:13:31;18.20;65.60
46816;DHT22;32787;53.316;8.670;2022-07-17T10:15:58;18.10;68.50
46816;DHT22;32787;53.316;8.670;2022-07-17T10:18:41;18.30;67.10
46816;DHT22;32787;53.316;8.670;2022-07-17T10:21:15;18.40;65.10
46816;DHT22;32787;53.316;8.670;2022-07-17T10:29:02;18.60;65.60
46816;DHT22;32787;53.316;8.670;2022-07-17T10:31:30;18.70;65.90
46816;DHT22;32787;53.316;8.670;2022-07-17T10:34:03;18.80;64.00
46816;DHT22;32787;53.316;8.670;2022-07-17T10:36:47;19.00;65.30
46816;DHT22;32787;53.316;8.670;2022-07-17T10:39:16;19.50;64.10
46816;DHT22;32787;53.316;8.670;2022-07-17T10:41:54;19.20;62.80
46816;DHT22;32787;53.316;8.670;2022-07-17T10:44:27;19.20;66.10
46816;DHT22;32787;53.316;8.670;2022-07-17T10:46:54;19.00;62.70
46816;DHT22;32787;53.316;8.670;2022-07-17T10:49:20;18.90;62.50
46816;DHT22;32787;53.316;8.670;2022-07-17T10:51:46;19.00;61.10
46816;DHT22;32787;53.316;8.670;2022-07-17T10:54:12;19.30;61.50
46816;DHT22;32787;53.316;8.670;2022-07-17T10:56:41;19.80;62.40
46816;DHT22;32787;53.316;8.670;2022-07-17T10:59:07;19.90;61.90
46816;DHT22;32787;53.316;8.670;2022-07-17T11:01:32;19.90;61.60
46816;DHT22;32787;53.316;8.670;2022-07-17T11:04:00;20.20;63.60
46816;DHT22;32787;53.316;8.670;2022-07-17T11:06:29;20.00;61.30
46816;DHT22;32787;53.316;8.670;2022-07-17T11:11:48;20.70;62.90
46816;DHT22;32787;53.316;8.670;2022-07-17T11:14:19;20.70;62.60
46816;DHT22;32787;53.316;8.670;2022-07-17T11:16:46;20.30;60.80
46816;DHT22;32787;53.316;8.670;2022-07-17T11:19:20;19.80;61.50
46816;DHT22;32787;53.316;8.670;2022-07-17T11:21:47;19.70;65.40
46816;DHT22;32787;53.316;8.670;2022-07-17T11:24:14;19.50;63.20
46816;DHT22;32787;53.316;8.670;2022-07-17T11:26:42;20.60;61.80
46816;DHT22;32787;53.316;8.670;2022-07-17T11:29:08;21.40;58.30
46816;DHT22;32787;53.316;8.670;2022-07-17T11:31:33;21.80;55.00
46816;DHT22;32787;53.316;8.670;2022-07-17T11:34:06;21.40;56.00
46816;DHT22;32787;53.316;8.670;2022-07-17T11:36:36;20.90;59.90
46816;DHT22;32787;53.316;8.670;2022-07-17T11:39:13;20.20;58.80
46816;DHT22;32787;53.316;8.670;2022-07-17T11:41:46;20.00;61.60
46816;DHT22;32787;53.316;8.670;2022-07-17T11:44:20;20.10;63.20
46816;DHT22;32787;53.316;8.670;2022-07-17T11:46:48;20.30;60.30
46816;DHT22;32787;53.316;8.670;2022-07-17T11:49:30;20.70;56.30
46816;DHT22;32787;53.316;8.670;2022-07-17T11:52:27;20.70;57.10
46816;DHT22;32787;53.316;8.670;2022-07-17T11:54:55;20.60;60.30
46816;DHT22;32787;53.316;8.670;2022-07-17T11:57:22;20.40;59.00
46816;DHT22;32787;53.316;8.670;2022-07-17T11:59:49;20.40;57.80
46816;DHT22;32787;53.316;8.670;2022-07-17T12:02:19;20.60;60.20
46816;DHT22;32787;53.316;8.670;2022-07-17T12:04:50;20.60;58.00
46816;DHT22;32787;53.316;8.670;2022-07-17T12:07:19;20.80;61.10
46816;DHT22;32787;53.316;8.670;2022-07-17T12:09:46;21.10;57.00
46816;DHT22;32787;53.316;8.670;2022-07-17T12:12:25;20.80;56.10
46816;DHT22;32787;53.316;8.670;2022-07-17T12:14:52;20.80;54.60
46816;DHT22;32787;53.316;8.670;2022-07-17T12:17:18;21.20;55.10
46816;DHT22;32787;53.316;8.670;2022-07-17T12:19:44;21.30;54.00
46816;DHT22;32787;53.316;8.670;2022-07-17T12:22:09;21.10;53.80
46816;DHT22;32787;53.316;8.670;2022-07-17T12:24:40;21.40;55.00
46816;DHT22;32787;53.316;8.670;2022-07-17T12:27:09;21.80;53.10
46816;DHT22;32787;53.316;8.670;2022-07-17T12:29:35;21.70;55.50
46816;DHT22;32787;53.316;8.670;2022-07-17T12:34:26;22.30;56.70
46816;DHT22;32787;53.316;8.670;2022-07-17T12:36:52;22.40;52.10
46816;DHT22;32787;53.316;8.670;2022-07-17T12:39:17;23.30;51.90
46816;DHT22;32787;53.316;8.670;2022-07-17T12:41:44;24.80;50.80
46816;DHT22;32787;53.316;8.670;2022-07-17T12:44:10;25.60;45.00
46816;DHT22;32787;53.316;8.670;2022-07-17T12:46:36;26.40;46.30
46816;DHT22;32787;53.316;8.670;2022-07-17T12:49:01;26.70;46.40
46816;DHT22;32787;53.316;8.670;2022-07-17T12:51:27;27.60;41.50
46816;DHT22;32787;53.316;8.670;2022-07-17T12:53:53;27.50;39.20
46816;DHT22;32787;53.316;8.670;2022-07-17T12:56:18;27.00;44.00
46816;DHT22;32787;53.316;8.670;2022-07-17T12:58:44;27.20;40.00
46816;DHT22;32787;53.316;8.670;2022-07-17T13:01:10;27.20;40.30
46816;DHT22;32787;53.316;8.670;2022-07-17T13:03:36;27.90;41.70
46816;DHT22;32787;53.316;8.670;2022-07-17T13:06:02;28.30;39.30
46816;DHT22;32787;53.316;8.670;2022-07-17T13:08:29;28.70;44.80
46816;DHT22;32787;53.316;8.670;2022-07-17T13:10:55;28.00;38.60
46816;DHT22;32787;53.316;8.670;2022-07-17T13:13:20;26.70;48.30
46816;DHT22;32787;53.316;8.670;2022-07-17T13:15:46;27.80;45.70
46816;DHT22;32787;53.316;8.670;2022-07-17T13:18:11;28.20;41.80
46816;DHT22;32787;53.316;8.670;2022-07-17T13:20:37;28.40;39.60
46816;DHT22;32787;53.316;8.670;2022-07-17T13:23:03;28.70;43.90
46816;DHT22;32787;53.316;8.670;2022-07-17T13:25:29;29.00;39.50
46816;DHT22;32787;53.316;8.670;2022-07-17T13:27:54;28.50;39.60
46816;DHT22;32787;53.316;8.670;2022-07-17T13:30:20;28.30;41.50
46816;DHT22;32787;53.316;8.670;2022-07-17T13:32:46;28.80;41.20
46816;DHT22;32787;53.316;8.670;2022-07-17T13:35:12;29.70;40.00
46816;DHT22;32787;53.316;8.670;2022-07-17T13:37:37;28.50;41.20
46816;DHT22;32787;53.316;8.670;2022-07-17T13:40:05;29.00;37.80
46816;DHT22;32787;53.316;8.670;2022-07-17T13:42:30;29.10;37.90
46816;DHT22;32787;53.316;8.670;2022-07-17T13:44:57;28.10;40.10
46816;DHT22;32787;53.316;8.670;2022-07-17T13:47:22;28.00;43.00
46816;DHT22;32787;53.316;8.670;2022-07-17T13:49:48;27.80;44.20
46816;DHT22;32787;53.316;8.670;2022-07-17T13:52:14;27.00;43.00
46816;DHT22;32787;53.316;8.670;2022-07-17T13:54:39;26.70;45.60
46816;DHT22;32787;53.316;8.670;2022-07-17T13:57:05;26.20;43.80
46816;DHT22;32787;53.316;8.670;2022-07-17T13:59:30;25.90;50.50
46816;DHT22;32787;53.316;8.670;2022-07-17T14:01:56;25.70;45.40
46816;DHT22;32787;53.316;8.670;2022-07-17T14:04:21;24.50;48.50
46816;DHT22;32787;53.316;8.670;2022-07-17T14:06:47;24.80;50.70
46816;DHT22;32787;53.316;8.670;2022-07-17T14:09:13;24.60;49.40
46816;DHT22;32787;53.316;8.670;2022-07-17T14:11:38;24.80;51.70
46816;DHT22;32787;53.316;8.670;2022-07-17T14:14:04;24.30;50.10
46816;DHT22;32787;53.316;8.670;2022-07-17T14:16:30;24.00;52.80
46816;DHT22;32787;53.316;8.670;2022-07-17T14:18:56;24.30;49.20
46816;DHT22;32787;53.316;8.670;2022-07-17T14:21:34;24.80;48.80
46816;DHT22;32787;53.316;8.670;2022-07-17T14:24:00;25.20;54.30
46816;DHT22;32787;53.316;8.670;2022-07-17T14:26:26;25.60;47.70
46816;DHT22;32787;53.316;8.670;2022-07-17T14:28:52;26.20;51.10
46816;DHT22;32787;53.316;8.670;2022-07-17T14:31:18;26.90;46.30
46816;DHT22;32787;53.316;8.670;2022-07-17T14:33:44;26.70;49.00
46816;DHT22;32787;53.316;8.670;2022-07-17T14:36:10;26.70;45.50
46816;DHT22;32787;53.316;8.670;2022-07-17T14:38:36;26.20;50.60
46816;DHT22;32787;53.316;8.670;2022-07-17T14:41:02;25.70;48.00
46816;DHT22;32787;53.316;8.670;2022-07-17T14:43:29;25.90;48.90
46816;DHT22;32787;53.316;8.670;2022-07-17T14:45:55;26.20;48.80
46816;DHT22;32787;53.316;8.670;2022-07-17T14:48:21;26.30;48.00
46816;DHT22;32787;53.316;8.670;2022-07-17T14:50:46;26.50;49.40
46816;DHT22;32787;53.316;8.670;2022-07-17T14:53:12;26.60;45.00
46816;DHT22;32787;53.316;8.670;2022-07-17T14:55:38;26.90;46.80
46816;DHT22;32787;53.316;8.670;2022-07-17T14:58:03;26.70;47.40
46816;DHT22;32787;53.316;8.670;2022-07-17T15:00:29;26.80;48.80
46816;DHT22;32787;53.316;8.670;2022-07-17T15:02:55;26.60;47.20
46816;DHT22;32787;53.316;8.670;2022-07-17T15:05:21;25.80;52.20
46816;DHT22;32787;53.316;8.670;2022-07-17T15:07:46;25.40;47.10
46816;DHT22;32787;53.316;8.670;2022-07-17T15:10:12;25.90;47.10
46816;DHT22;32787;53.316;8.670;2022-07-17T15:12:38;25.40;46.50
46816;DHT22;32787;53.316;8.670;2022-07-17T15:15:04;24.90;49.90
46816;DHT22;32787;53.316;8.670;2022-07-17T15:17:29;25.10;50.60
46816;DHT22;32787;53.316;8.670;2022-07-17T15:19:55;25.30;48.40
46816;DHT22;32787;53.316;8.670;2022-07-17T15:22:21;25.80;47.00
46816;DHT22;32787;53.316;8.670;2022-07-17T15:24:46;25.40;49.90
46816;DHT22;32787;53.316;8.670;2022-07-17T15:27:12;25.90;50.90
46816;DHT22;32787;53.316;8.670;2022-07-17T15:29:38;24.70;50.40
46816;DHT22;32787;53.316;8.670;2022-07-17T15:32:04;24.80;49.90
46816;DHT22;32787;53.316;8.670;2022-07-17T15:34:30;25.40;49.60
46816;DHT22;32787;53.316;8.670;2022-07-17T15:36:55;25.20;50.10
46816;DHT22;32787;53.316;8.670;2022-07-17T15:39:21;24.50;49.50
46816;DHT22;32787;53.316;8.670;2022-07-17T15:41:47;24.90;50.10
46816;DHT22;32787;53.316;8.670;2022-07-17T15:44:13;24.70;51.90
46816;DHT22;32787;53.316;8.670;2022-07-17T15:46:44;25.10;50.10